sensor_id;sensor_type;location;lat;lon;timestamp;temperature;humidity
22635;DHT22;11484;50.858;4.384;2023-04-06T00:01:40;10.60;60.20
22635;DHT22;11484;50.858;4.384;2023-04-06T00:04:06;10.60;60.00
22635;DHT22;11484;50.858;4.384;2023-04-06T00:06:32;10.50;60.00
22635;DHT22;11484;50.858;4.384;2023-04-06T00:08:59;10.50;60.10
22635;DHT22;11484;50.858;4.384;2023-04-06T00:11:25;10.50;60.20
22635;DHT22;11484;50.858;4.384;2023-04-06T00:13:51;10.60;60.00
22635;DHT22;11484;50.858;4.384;2023-04-06T00:16:17;10.60;60.00
22635;DHT22;11484;50.858;4.384;2023-04-06T00:18:43;10.60;60.00
22635;DHT22;11484;50.858;4.384;2023-04-06T00:21:12;10.50;60.10
22635;DHT22;11484;50.858;4.384;2023-04-06T00:23:38;10.50;60.30
22635;DHT22;11484;50.858;4.384;2023-04-06T00:26:04;10.40;60.40
22635;DHT22;11484;50.858;4.384;2023-04-06T00:28:30;10.40;60.80
22635;DHT22;11484;50.858;4.384;2023-04-06T00:30:56;10.40;60.80
22635;DHT22;11484;50.858;4.384;2023-04-06T00:33:22;10.40;60.90
22635;DHT22;11484;50.858;4.384;2023-04-06T00:35:49;10.40;61.10
22635;DHT22;11484;50.858;4.384;2023-04-06T00:38:15;10.40;61.30
22635;DHT22;11484;50.858;4.384;2023-04-06T00:40:41;10.50;61.30
22635;DHT22;11484;50.858;4.384;2023-04-06T00:43:10;10.50;61.40
22635;DHT22;11484;50.858;4.384;2023-04-06T00:45:37;10.40;61.60
22635;DHT22;11484;50.858;4.384;2023-04-06T00:48:03;10.40;61.90
22635;DHT22;11484;50.858;4.384;2023-04-06T00:50:29;10.40;62.10
22635;DHT22;11484;50.858;4.384;2023-04-06T00:52:55;10.50;62.10
22635;DHT22;11484;50.858;4.384;2023-04-06T00:55:21;10.50;62.10
22635;DHT22;11484;50.858;4.384;2023-04-06T00:57:47;10.60;62.20
22635;DHT22;11484;50.858;4.384;2023-04-06T01:00:13;10.60;62.30
22635;DHT22;11484;50.858;4.384;2023-04-06T01:02:39;10.60;62.50
22635;DHT22;11484;50.858;4.384;2023-04-06T01:05:05;10.60;62.60
22635;DHT22;11484;50.858;4.384;2023-04-06T01:07:31;10.50;62.80
22635;DHT22;11484;50.858;4.384;2023-04-06T01:09:57;10.50;62.90
22635;DHT22;11484;50.858;4.384;2023-04-06T01:12:23;10.40;63.00
22635;DHT22;11484;50.858;4.384;2023-04-06T01:14:49;10.50;63.20
22635;DHT22;11484;50.858;4.384;2023-04-06T01:17:15;10.50;63.00
22635;DHT22;11484;50.858;4.384;2023-04-06T01:19:41;10.50;62.80
22635;DHT22;11484;50.858;4.384;2023-04-06T01:22:07;10.50;62.60
22635;DHT22;11484;50.858;4.384;2023-04-06T01:24:33;10.50;62.40
22635;DHT22;11484;50.858;4.384;2023-04-06T01:26:59;10.60;62.40
22635;DHT22;11484;50.858;4.384;2023-04-06T01:29:26;10.50;62.40
22635;DHT22;11484;50.858;4.384;2023-04-06T01:31:52;10.50;62.50
22635;DHT22;11484;50.858;4.384;2023-04-06T01:34:17;10.50;62.70
22635;DHT22;11484;50.858;4.384;2023-04-06T01:36:43;10.50;62.90
22635;DHT22;11484;50.858;4.384;2023-04-06T01:39:09;10.50;63.10
22635;DHT22;11484;50.858;4.384;2023-04-06T01:41:35;10.40;63.10
22635;DHT22;11484;50.858;4.384;2023-04-06T01:44:02;10.40;63.20
22635;DHT22;11484;50.858;4.384;2023-04-06T01:46:27;10.40;63.20
22635;DHT22;11484;50.858;4.384;2023-04-06T01:48:53;10.40;63.20
22635;DHT22;11484;50.858;4.384;2023-04-06T01:51:19;10.40;63.40
22635;DHT22;11484;50.858;4.384;2023-04-06T01:53:44;10.40;63.60
22635;DHT22;11484;50.858;4.384;2023-04-06T01:56:10;10.40;63.70
22635;DHT22;11484;50.858;4.384;2023-04-06T01:58:36;10.40;63.60
22635;DHT22;11484;50.858;4.384;2023-04-06T02:01:02;10.40;63.70
22635;DHT22;11484;50.858;4.384;2023-04-06T02:03:28;10.40;63.70
22635;DHT22;11484;50.858;4.384;2023-04-06T02:05:53;10.40;63.80
22635;DHT22;11484;50.858;4.384;2023-04-06T02:08:19;10.40;64.00
22635;DHT22;11484;50.858;4.384;2023-04-06T02:10:45;10.40;64.20
22635;DHT22;11484;50.858;4.384;2023-04-06T02:13:11;10.30;64.10
22635;DHT22;11484;50.858;4.384;2023-04-06T02:15:37;10.30;64.30
22635;DHT22;11484;50.858;4.384;2023-04-06T02:18:02;10.30;64.40
22635;DHT22;11484;50.858;4.384;2023-04-06T02:20:28;10.30;64.20
22635;DHT22;11484;50.858;4.384;2023-04-06T02:22:56;10.30;64.30
22635;DHT22;11484;50.858;4.384;2023-04-06T02:25:21;10.30;64.30
22635;DHT22;11484;50.858;4.384;2023-04-06T02:27:47;10.30;64.30
22635;DHT22;11484;50.858;4.384;2023-04-06T02:30:13;10.30;64.70
22635;DHT22;11484;50.858;4.384;2023-04-06T02:32:39;10.40;64.60
22635;DHT22;11484;50.858;4.384;2023-04-06T02:35:05;10.40;64.60
22635;DHT22;11484;50.858;4.384;2023-04-06T02:37:31;10.40;64.40
22635;DHT22;11484;50.858;4.384;2023-04-06T02:39:56;10.50;64.60
22635;DHT22;11484;50.858;4.384;2023-04-06T02:42:22;10.50;64.30
22635;DHT22;11484;50.858;4.384;2023-04-06T02:44:48;10.50;64.30
22635;DHT22;11484;50.858;4.384;2023-04-06T02:47:14;10.50;64.60
22635;DHT22;11484;50.858;4.384;2023-04-06T02:49:40;10.60;64.50
22635;DHT22;11484;50.858;4.384;2023-04-06T02:52:05;10.40;64.30
22635;DHT22;11484;50.858;4.384;2023-04-06T02:54:31;10.40;64.50
22635;DHT22;11484;50.858;4.384;2023-04-06T02:56:57;10.30;64.50
22635;DHT22;11484;50.858;4.384;2023-04-06T02:59:23;10.30;64.60
22635;DHT22;11484;50.858;4.384;2023-04-06T03:01:48;10.30;64.90
22635;DHT22;11484;50.858;4.384;2023-04-06T03:04:14;10.30;65.20
22635;DHT22;11484;50.858;4.384;2023-04-06T03:06:40;10.30;65.30
22635;DHT22;11484;50.858;4.384;2023-04-06T03:09:06;10.30;65.40
22635;DHT22;11484;50.858;4.384;2023-04-06T03:11:32;10.30;65.50
22635;DHT22;11484;50.858;4.384;2023-04-06T03:13:58;10.30;65.50
22635;DHT22;11484;50.858;4.384;2023-04-06T03:16:27;10.30;65.70
22635;DHT22;11484;50.858;4.384;2023-04-06T03:18:53;10.30;65.80
22635;DHT22;11484;50.858;4.384;2023-04-06T03:21:19;10.30;65.90
22635;DHT22;11484;50.858;4.384;2023-04-06T03:23:45;10.20;65.90
22635;DHT22;11484;50.858;4.384;2023-04-06T03:26:10;10.10;66.50
22635;DHT22;11484;50.858;4.384;2023-04-06T03:28:36;10.10;66.60
22635;DHT22;11484;50.858;4.384;2023-04-06T03:31:02;10.00;66.90
22635;DHT22;11484;50.858;4.384;2023-04-06T03:33:28;10.00;67.00
22635;DHT22;11484;50.858;4.384;2023-04-06T03:35:54;10.00;67.00
22635;DHT22;11484;50.858;4.384;2023-04-06T03:38:19;10.00;67.00
22635;DHT22;11484;50.858;4.384;2023-04-06T03:40:45;10.10;67.20
22635;DHT22;11484;50.858;4.384;2023-04-06T03:43:11;10.10;67.20
22635;DHT22;11484;50.858;4.384;2023-04-06T03:45:37;10.10;67.30
22635;DHT22;11484;50.858;4.384;2023-04-06T03:48:03;10.00;67.40
22635;DHT22;11484;50.858;4.384;2023-04-06T03:50:29;10.00;67.50
22635;DHT22;11484;50.858;4.384;2023-04-06T03:52:54;9.90;67.70
22635;DHT22;11484;50.858;4.384;2023-04-06T03:55:20;9.90;67.80
22635;DHT22;11484;50.858;4.384;2023-04-06T03:57:46;9.90;68.00
22635;DHT22;11484;50.858;4.384;2023-04-06T04:00:12;9.80;68.10
22635;DHT22;11484;50.858;4.384;2023-04-06T04:02:38;9.80;68.20
22635;DHT22;11484;50.858;4.384;2023-04-06T04:05:04;9.90;68.30
22635;DHT22;11484;50.858;4.384;2023-04-06T04:07:30;9.90;68.30
22635;DHT22;11484;50.858;4.384;2023-04-06T04:09:56;9.90;68.60
22635;DHT22;11484;50.858;4.384;2023-04-06T04:12:21;9.90;68.60
22635;DHT22;11484;50.858;4.384;2023-04-06T04:14:47;10.00;68.40
22635;DHT22;11484;50.858;4.384;2023-04-06T04:17:13;10.10;68.10
22635;DHT22;11484;50.858;4.384;2023-04-06T04:19:38;10.20;67.90
22635;DHT22;11484;50.858;4.384;2023-04-06T04:22:04;10.30;67.90
22635;DHT22;11484;50.858;4.384;2023-04-06T04:24:31;10.20;67.80
22635;DHT22;11484;50.858;4.384;2023-04-06T04:26:57;10.30;68.00
22635;DHT22;11484;50.858;4.384;2023-04-06T04:29:22;10.40;67.80
22635;DHT22;11484;50.858;4.384;2023-04-06T04:31:49;10.30;67.90
22635;DHT22;11484;50.858;4.384;2023-04-06T04:34:15;10.30;68.00
22635;DHT22;11484;50.858;4.384;2023-04-06T04:36:41;10.40;68.20
22635;DHT22;11484;50.858;4.384;2023-04-06T04:39:07;10.50;68.40
22635;DHT22;11484;50.858;4.384;2023-04-06T04:41:33;10.50;68.40
22635;DHT22;11484;50.858;4.384;2023-04-06T04:43:59;10.50;68.70
22635;DHT22;11484;50.858;4.384;2023-04-06T04:46:25;10.50;68.80
22635;DHT22;11484;50.858;4.384;2023-04-06T04:48:50;10.50;69.10
22635;DHT22;11484;50.858;4.384;2023-04-06T04:51:19;10.50;69.30
22635;DHT22;11484;50.858;4.384;2023-04-06T04:53:45;10.50;69.50
22635;DHT22;11484;50.858;4.384;2023-04-06T04:56:11;10.60;69.40
22635;DHT22;11484;50.858;4.384;2023-04-06T04:58:37;10.50;69.90
22635;DHT22;11484;50.858;4.384;2023-04-06T05:01:02;10.50;70.50
22635;DHT22;11484;50.858;4.384;2023-04-06T05:03:28;10.50;70.80
22635;DHT22;11484;50.858;4.384;2023-04-06T05:05:54;10.40;71.10
22635;DHT22;11484;50.858;4.384;2023-04-06T05:08:20;10.50;71.40
22635;DHT22;11484;50.858;4.384;2023-04-06T05:10:46;10.50;71.40
22635;DHT22;11484;50.858;4.384;2023-04-06T05:13:13;10.60;71.20
22635;DHT22;11484;50.858;4.384;2023-04-06T05:15:40;10.60;71.30
22635;DHT22;11484;50.858;4.384;2023-04-06T05:18:06;10.50;71.50
22635;DHT22;11484;50.858;4.384;2023-04-06T05:20:32;10.50;72.10
22635;DHT22;11484;50.858;4.384;2023-04-06T05:22:58;10.50;72.10
22635;DHT22;11484;50.858;4.384;2023-04-06T05:25:24;10.50;72.70
22635;DHT22;11484;50.858;4.384;2023-04-06T05:27:49;10.40;73.00
22635;DHT22;11484;50.858;4.384;2023-04-06T05:30:15;10.40;73.20
22635;DHT22;11484;50.858;4.384;2023-04-06T05:32:41;10.40;73.40
22635;DHT22;11484;50.858;4.384;2023-04-06T05:35:09;10.50;73.60
22635;DHT22;11484;50.858;4.384;2023-04-06T05:37:35;10.50;74.00
22635;DHT22;11484;50.858;4.384;2023-04-06T05:40:00;10.50;73.90
22635;DHT22;11484;50.858;4.384;2023-04-06T05:42:39;10.60;73.60
22635;DHT22;11484;50.858;4.384;2023-04-06T05:45:06;10.70;73.30
22635;DHT22;11484;50.858;4.384;2023-04-06T05:47:32;10.60;73.70
22635;DHT22;11484;50.858;4.384;2023-04-06T05:49:58;10.60;74.30
22635;DHT22;11484;50.858;4.384;2023-04-06T05:52:24;10.50;74.80
22635;DHT22;11484;50.858;4.384;2023-04-06T05:54:50;10.60;74.90
22635;DHT22;11484;50.858;4.384;2023-04-06T05:57:16;10.60;74.90
22635;DHT22;11484;50.858;4.384;2023-04-06T05:59:44;10.60;74.60
22635;DHT22;11484;50.858;4.384;2023-04-06T06:02:10;10.70;74.70
22635;DHT22;11484;50.858;4.384;2023-04-06T06:04:36;10.70;75.20
22635;DHT22;11484;50.858;4.384;2023-04-06T06:07:01;10.60;75.30
22635;DHT22;11484;50.858;4.384;2023-04-06T06:09:27;10.60;75.80
22635;DHT22;11484;50.858;4.384;2023-04-06T06:11:53;10.70;76.10
22635;DHT22;11484;50.858;4.384;2023-04-06T06:14:18;10.70;76.10
22635;DHT22;11484;50.858;4.384;2023-04-06T06:16:44;10.80;76.00
22635;DHT22;11484;50.858;4.384;2023-04-06T06:19:10;10.80;76.10
22635;DHT22;11484;50.858;4.384;2023-04-06T06:21:36;11.00;76.00
22635;DHT22;11484;50.858;4.384;2023-04-06T06:24:07;10.90;76.20
22635;DHT22;11484;50.858;4.384;2023-04-06T06:26:33;10.90;77.20
22635;DHT22;11484;50.858;4.384;2023-04-06T06:29:00;10.90;78.50
22635;DHT22;11484;50.858;4.384;2023-04-06T06:31:26;10.90;80.10
22635;DHT22;11484;50.858;4.384;2023-04-06T06:33:52;10.70;82.10
22635;DHT22;11484;50.858;4.384;2023-04-06T06:36:18;10.50;85.30
22635;DHT22;11484;50.858;4.384;2023-04-06T06:38:44;10.50;88.10
22635;DHT22;11484;50.858;4.384;2023-04-06T06:41:10;10.50;89.80
22635;DHT22;11484;50.858;4.384;2023-04-06T06:43:36;10.40;91.30
22635;DHT22;11484;50.858;4.384;2023-04-06T06:46:02;10.50;93.00
22635;DHT22;11484;50.858;4.384;2023-04-06T06:48:28;10.50;94.60
22635;DHT22;11484;50.858;4.384;2023-04-06T06:50:54;10.60;95.30
22635;DHT22;11484;50.858;4.384;2023-04-06T06:53:20;10.60;96.50
22635;DHT22;11484;50.858;4.384;2023-04-06T06:55:46;10.60;98.10
22635;DHT22;11484;50.858;4.384;2023-04-06T06:58:11;10.50;99.50
22635;DHT22;11484;50.858;4.384;2023-04-06T07:00:37;10.40;99.90
22635;DHT22;11484;50.858;4.384;2023-04-06T07:03:03;10.40;99.90
22635;DHT22;11484;50.858;4.384;2023-04-06T07:05:29;10.60;99.90
22635;DHT22;11484;50.858;4.384;2023-04-06T07:07:55;10.70;99.90
22635;DHT22;11484;50.858;4.384;2023-04-06T07:10:21;10.70;99.90
22635;DHT22;11484;50.858;4.384;2023-04-06T07:12:47;10.50;99.90
22635;DHT22;11484;50.858;4.384;2023-04-06T07:15:13;10.30;99.90
22635;DHT22;11484;50.858;4.384;2023-04-06T07:17:39;10.20;99.90
22635;DHT22;11484;50.858;4.384;2023-04-06T07:20:06;10.10;99.90
22635;DHT22;11484;50.858;4.384;2023-04-06T07:22:32;10.00;99.90
22635;DHT22;11484;50.858;4.384;2023-04-06T07:24:58;10.10;99.90
22635;DHT22;11484;50.858;4.384;2023-04-06T07:27:24;10.10;99.90
22635;DHT22;11484;50.858;4.384;2023-04-06T07:29:50;10.10;99.90
22635;DHT22;11484;50.858;4.384;2023-04-06T07:32:15;10.10;99.90
22635;DHT22;11484;50.858;4.384;2023-04-06T07:34:41;10.10;99.90
22635;DHT22;11484;50.858;4.384;2023-04-06T07:37:07;10.20;99.90
22635;DHT22;11484;50.858;4.384;2023-04-06T07:39:33;10.20;99.90
22635;DHT22;11484;50.858;4.384;2023-04-06T07:41:59;10.30;99.90
22635;DHT22;11484;50.858;4.384;2023-04-06T07:44:25;10.30;99.90
22635;DHT22;11484;50.858;4.384;2023-04-06T07:46:50;10.30;99.90
22635;DHT22;11484;50.858;4.384;2023-04-06T07:49:16;10.30;99.90
22635;DHT22;11484;50.858;4.384;2023-04-06T07:51:42;10.20;99.90
22635;DHT22;11484;50.858;4.384;2023-04-06T07:54:08;10.20;99.90
22635;DHT22;11484;50.858;4.384;2023-04-06T07:56:33;10.00;99.90
22635;DHT22;11484;50.858;4.384;2023-04-06T07:58:59;9.90;99.90
22635;DHT22;11484;50.858;4.384;2023-04-06T08:01:25;9.90;99.90
22635;DHT22;11484;50.858;4.384;2023-04-06T08:03:51;9.90;99.90
22635;DHT22;11484;50.858;4.384;2023-04-06T08:06:17;9.80;99.90
22635;DHT22;11484;50.858;4.384;2023-04-06T08:08:43;9.80;99.90
22635;DHT22;11484;50.858;4.384;2023-04-06T08:11:09;9.90;99.90
22635;DHT22;11484;50.858;4.384;2023-04-06T08:13:35;10.00;99.90
22635;DHT22;11484;50.858;4.384;2023-04-06T08:16:01;10.10;99.90
22635;DHT22;11484;50.858;4.384;2023-04-06T08:18:27;10.30;99.90
22635;DHT22;11484;50.858;4.384;2023-04-06T08:20:54;10.20;99.90
22635;DHT22;11484;50.858;4.384;2023-04-06T08:23:20;10.20;99.90
22635;DHT22;11484;50.858;4.384;2023-04-06T08:25:46;10.10;99.90
22635;DHT22;11484;50.858;4.384;2023-04-06T08:28:12;10.10;99.90
22635;DHT22;11484;50.858;4.384;2023-04-06T08:30:41;10.00;99.90
22635;DHT22;11484;50.858;4.384;2023-04-06T08:33:08;9.90;99.90
22635;DHT22;11484;50.858;4.384;2023-04-06T08:35:33;9.80;99.90
22635;DHT22;11484;50.858;4.384;2023-04-06T08:37:59;9.70;99.90
22635;DHT22;11484;50.858;4.384;2023-04-06T08:40:25;9.70;99.90
22635;DHT22;11484;50.858;4.384;2023-04-06T08:42:54;9.60;99.90
22635;DHT22;11484;50.858;4.384;2023-04-06T08:45:20;9.60;99.90
22635;DHT22;11484;50.858;4.384;2023-04-06T08:47:50;9.60;99.90
22635;DHT22;11484;50.858;4.384;2023-04-06T08:50:17;9.60;99.90
22635;DHT22;11484;50.858;4.384;2023-04-06T08:52:48;9.60;99.90
22635;DHT22;11484;50.858;4.384;2023-04-06T08:55:14;9.60;99.90
22635;DHT22;11484;50.858;4.384;2023-04-06T08:57:42;9.70;99.90
22635;DHT22;11484;50.858;4.384;2023-04-06T09:00:10;9.70;99.90
22635;DHT22;11484;50.858;4.384;2023-04-06T09:02:39;9.60;99.90
22635;DHT22;11484;50.858;4.384;2023-04-06T09:05:08;9.60;99.90
22635;DHT22;11484;50.858;4.384;2023-04-06T09:07:36;9.60;99.90
22635;DHT22;11484;50.858;4.384;2023-04-06T09:10:01;9.70;99.90
22635;DHT22;11484;50.858;4.384;2023-04-06T09:12:29;9.70;99.90
22635;DHT22;11484;50.858;4.384;2023-04-06T09:14:56;9.80;99.90
22635;DHT22;11484;50.858;4.384;2023-04-06T09:17:30;9.70;99.90
22635;DHT22;11484;50.858;4.384;2023-04-06T09:19:59;9.70;99.90
22635;DHT22;11484;50.858;4.384;2023-04-06T09:22:25;9.70;99.90
22635;DHT22;11484;50.858;4.384;2023-04-06T09:24:54;9.80;99.90
22635;DHT22;11484;50.858;4.384;2023-04-06T09:27:33;9.70;99.90
22635;DHT22;11484;50.858;4.384;2023-04-06T09:30:10;9.70;99.90
22635;DHT22;11484;50.858;4.384;2023-04-06T09:32:46;9.70;99.90
22635;DHT22;11484;50.858;4.384;2023-04-06T09:35:13;9.70;99.90
22635;DHT22;11484;50.858;4.384;2023-04-06T09:37:39;9.70;99.90
22635;DHT22;11484;50.858;4.384;2023-04-06T09:40:06;9.60;99.90
22635;DHT22;11484;50.858;4.384;2023-04-06T09:42:33;9.60;99.90
22635;DHT22;11484;50.858;4.384;2023-04-06T09:45:00;9.70;99.90
22635;DHT22;11484;50.858;4.384;2023-04-06T09:47:27;9.70;99.90
22635;DHT22;11484;50.858;4.384;2023-04-06T09:49:58;9.70;99.90
22635;DHT22;11484;50.858;4.384;2023-04-06T09:52:31;9.60;99.90
22635;DHT22;11484;50.858;4.384;2023-04-06T09:55:02;9.70;99.90
22635;DHT22;11484;50.858;4.384;2023-04-06T09:57:45;9.80;99.90
22635;DHT22;11484;50.858;4.384;2023-04-06T10:00:13;9.80;99.90
22635;DHT22;11484;50.858;4.384;2023-04-06T10:03:17;9.70;99.90
22635;DHT22;11484;50.858;4.384;2023-04-06T10:05:55;9.80;99.90
22635;DHT22;11484;50.858;4.384;2023-04-06T10:08:27;9.80;99.90
22635;DHT22;11484;50.858;4.384;2023-04-06T10:10:56;9.80;99.90
22635;DHT22;11484;50.858;4.384;2023-04-06T10:13:23;9.70;99.90
22635;DHT22;11484;50.858;4.384;2023-04-06T10:15:50;9.90;99.90
22635;DHT22;11484;50.858;4.384;2023-04-06T10:18:17;9.80;99.90
22635;DHT22;11484;50.858;4.384;2023-04-06T10:20:56;9.80;99.90
22635;DHT22;11484;50.858;4.384;2023-04-06T10:23:31;9.80;99.90
22635;DHT22;11484;50.858;4.384;2023-04-06T10:25:59;9.80;99.90
22635;DHT22;11484;50.858;4.384;2023-04-06T10:28:26;9.80;99.90
22635;DHT22;11484;50.858;4.384;2023-04-06T10:31:00;9.90;99.90
22635;DHT22;11484;50.858;4.384;2023-04-06T10:33:27;10.10;99.90
22635;DHT22;11484;50.858;4.384;2023-04-06T10:35:53;10.10;99.90
22635;DHT22;11484;50.858;4.384;2023-04-06T10:38:19;10.20;99.90
22635;DHT22;11484;50.858;4.384;2023-04-06T10:40:49;10.10;99.90
22635;DHT22;11484;50.858;4.384;2023-04-06T10:43:20;10.10;99.90
22635;DHT22;11484;50.858;4.384;2023-04-06T10:45:57;10.10;99.90
22635;DHT22;11484;50.858;4.384;2023-04-06T10:48:25;10.10;99.90
22635;DHT22;11484;50.858;4.384;2023-04-06T10:51:01;10.20;99.90
22635;DHT22;11484;50.858;4.384;2023-04-06T10:53:27;10.20;99.90
22635;DHT22;11484;50.858;4.384;2023-04-06T10:55:57;10.20;99.90
22635;DHT22;11484;50.858;4.384;2023-04-06T10:58:27;10.10;99.90
22635;DHT22;11484;50.858;4.384;2023-04-06T11:00:54;10.10;99.90
22635;DHT22;11484;50.858;4.384;2023-04-06T11:03:21;10.20;99.90
22635;DHT22;11484;50.858;4.384;2023-04-06T11:05:51;10.20;99.90
22635;DHT22;11484;50.858;4.384;2023-04-06T11:08:31;10.30;99.90
22635;DHT22;11484;50.858;4.384;2023-04-06T11:11:07;10.40;99.90
22635;DHT22;11484;50.858;4.384;2023-04-06T11:16:32;10.50;99.90
22635;DHT22;11484;50.858;4.384;2023-04-06T11:19:00;10.60;99.90
22635;DHT22;11484;50.858;4.384;2023-04-06T11:21:36;10.80;99.90
22635;DHT22;11484;50.858;4.384;2023-04-06T11:24:06;10.70;99.90
22635;DHT22;11484;50.858;4.384;2023-04-06T11:26:36;10.90;99.90
22635;DHT22;11484;50.858;4.384;2023-04-06T11:29:02;10.90;99.90
22635;DHT22;11484;50.858;4.384;2023-04-06T11:31:28;11.10;99.90
22635;DHT22;11484;50.858;4.384;2023-04-06T11:33:57;11.10;99.90
22635;DHT22;11484;50.858;4.384;2023-04-06T11:36:23;11.10;99.90
22635;DHT22;11484;50.858;4.384;2023-04-06T11:38:49;11.10;99.90
22635;DHT22;11484;50.858;4.384;2023-04-06T11:41:15;11.10;99.90
22635;DHT22;11484;50.858;4.384;2023-04-06T11:43:48;11.20;99.90
22635;DHT22;11484;50.858;4.384;2023-04-06T11:46:17;11.40;99.90
22635;DHT22;11484;50.858;4.384;2023-04-06T11:48:46;11.50;99.90
22635;DHT22;11484;50.858;4.384;2023-04-06T11:51:12;11.40;99.90
22635;DHT22;11484;50.858;4.384;2023-04-06T11:53:46;11.40;99.90
22635;DHT22;11484;50.858;4.384;2023-04-06T11:56:26;11.40;99.90
22635;DHT22;11484;50.858;4.384;2023-04-06T11:58:56;11.30;99.90
22635;DHT22;11484;50.858;4.384;2023-04-06T12:01:23;11.10;99.90
22635;DHT22;11484;50.858;4.384;2023-04-06T12:03:50;11.00;99.90
22635;DHT22;11484;50.858;4.384;2023-04-06T12:06:16;11.00;99.90
22635;DHT22;11484;50.858;4.384;2023-04-06T12:08:42;10.90;99.90
22635;DHT22;11484;50.858;4.384;2023-04-06T12:11:08;11.10;99.90
22635;DHT22;11484;50.858;4.384;2023-04-06T12:13:34;11.10;99.90
22635;DHT22;11484;50.858;4.384;2023-04-06T12:16:03;11.10;99.90
22635;DHT22;11484;50.858;4.384;2023-04-06T12:18:30;11.10;99.90
22635;DHT22;11484;50.858;4.384;2023-04-06T12:20:56;11.10;99.90
22635;DHT22;11484;50.858;4.384;2023-04-06T12:23:22;11.00;99.90
22635;DHT22;11484;50.858;4.384;2023-04-06T12:25:47;10.90;99.90
22635;DHT22;11484;50.858;4.384;2023-04-06T12:28:16;10.80;99.90
22635;DHT22;11484;50.858;4.384;2023-04-06T12:30:43;10.70;99.90
22635;DHT22;11484;50.858;4.384;2023-04-06T12:33:09;10.70;99.90
22635;DHT22;11484;50.858;4.384;2023-04-06T12:35:36;10.70;99.90
22635;DHT22;11484;50.858;4.384;2023-04-06T12:38:02;10.70;99.90
22635;DHT22;11484;50.858;4.384;2023-04-06T12:40:31;10.70;99.90
22635;DHT22;11484;50.858;4.384;2023-04-06T12:43:02;10.70;99.90
22635;DHT22;11484;50.858;4.384;2023-04-06T12:45:28;10.60;99.90
22635;DHT22;11484;50.858;4.384;2023-04-06T12:47:53;10.60;99.90
22635;DHT22;11484;50.858;4.384;2023-04-06T12:50:20;10.60;99.90
22635;DHT22;11484;50.858;4.384;2023-04-06T12:52:47;10.50;99.90
22635;DHT22;11484;50.858;4.384;2023-04-06T12:55:12;10.40;99.90
22635;DHT22;11484;50.858;4.384;2023-04-06T12:57:38;10.40;99.90
22635;DHT22;11484;50.858;4.384;2023-04-06T13:00:05;10.30;99.90
22635;DHT22;11484;50.858;4.384;2023-04-06T13:02:31;10.20;99.90
22635;DHT22;11484;50.858;4.384;2023-04-06T13:04:57;10.20;99.90
22635;DHT22;11484;50.858;4.384;2023-04-06T13:07:23;10.10;99.90
22635;DHT22;11484;50.858;4.384;2023-04-06T13:09:50;10.10;99.90
22635;DHT22;11484;50.858;4.384;2023-04-06T13:12:16;10.10;99.90
22635;DHT22;11484;50.858;4.384;2023-04-06T13:14:42;10.00;99.90
22635;DHT22;11484;50.858;4.384;2023-04-06T13:17:09;10.00;99.90
22635;DHT22;11484;50.858;4.384;2023-04-06T13:19:35;10.00;99.90
22635;DHT22;11484;50.858;4.384;2023-04-06T13:22:01;10.00;99.90
22635;DHT22;11484;50.858;4.384;2023-04-06T13:24:28;10.00;99.90
22635;DHT22;11484;50.858;4.384;2023-04-06T13:26:54;10.00;99.90
22635;DHT22;11484;50.858;4.384;2023-04-06T13:29:24;10.10;99.90
22635;DHT22;11484;50.858;4.384;2023-04-06T13:31:51;10.10;99.90
22635;DHT22;11484;50.858;4.384;2023-04-06T13:34:16;10.20;99.90
22635;DHT22;11484;50.858;4.384;2023-04-06T13:36:43;10.20;99.90
22635;DHT22;11484;50.858;4.384;2023-04-06T13:39:12;10.30;99.90
22635;DHT22;11484;50.858;4.384;2023-04-06T13:41:38;10.30;99.90
22635;DHT22;11484;50.858;4.384;2023-04-06T13:44:05;10.30;99.90
22635;DHT22;11484;50.858;4.384;2023-04-06T13:46:33;10.30;99.90
22635;DHT22;11484;50.858;4.384;2023-04-06T13:49:00;10.40;99.90
22635;DHT22;11484;50.858;4.384;2023-04-06T13:51:29;10.40;99.90
22635;DHT22;11484;50.858;4.384;2023-04-06T13:53:56;10.40;99.90
22635;DHT22;11484;50.858;4.384;2023-04-06T13:56:21;10.40;99.90
22635;DHT22;11484;50.858;4.384;2023-04-06T13:58:47;10.30;99.90
22635;DHT22;11484;50.858;4.384;2023-04-06T14:01:13;10.30;99.90
22635;DHT22;11484;50.858;4.384;2023-04-06T14:03:38;10.40;99.90
22635;DHT22;11484;50.858;4.384;2023-04-06T14:06:12;10.50;99.90
22635;DHT22;11484;50.858;4.384;2023-04-06T14:08:38;10.40;99.90
22635;DHT22;11484;50.858;4.384;2023-04-06T14:11:03;10.40;99.90
22635;DHT22;11484;50.858;4.384;2023-04-06T14:13:29;10.50;99.90
22635;DHT22;11484;50.858;4.384;2023-04-06T14:15:55;10.40;99.90
22635;DHT22;11484;50.858;4.384;2023-04-06T14:18:23;10.40;99.90
22635;DHT22;11484;50.858;4.384;2023-04-06T14:20:56;10.30;99.90
22635;DHT22;11484;50.858;4.384;2023-04-06T14:23:23;10.30;99.90
22635;DHT22;11484;50.858;4.384;2023-04-06T14:26:00;10.30;99.90
22635;DHT22;11484;50.858;4.384;2023-04-06T14:28:28;10.40;99.90
22635;DHT22;11484;50.858;4.384;2023-04-06T14:30:54;10.40;99.90
22635;DHT22;11484;50.858;4.384;2023-04-06T14:33:20;10.40;99.90
22635;DHT22;11484;50.858;4.384;2023-04-06T14:35:45;10.30;99.90
22635;DHT22;11484;50.858;4.384;2023-04-06T14:38:11;10.40;99.90
22635;DHT22;11484;50.858;4.384;2023-04-06T14:40:37;10.50;99.90
22635;DHT22;11484;50.858;4.384;2023-04-06T14:43:06;10.60;99.90
22635;DHT22;11484;50.858;4.384;2023-04-06T14:45:33;10.80;99.90
22635;DHT22;11484;50.858;4.384;2023-04-06T14:48:00;10.90;99.90
22635;DHT22;11484;50.858;4.384;2023-04-06T14:50:28;11.00;99.90
22635;DHT22;11484;50.858;4.384;2023-04-06T14:52:54;10.90;99.90
22635;DHT22;11484;50.858;4.384;2023-04-06T14:55:20;10.80;99.90
22635;DHT22;11484;50.858;4.384;2023-04-06T14:57:46;10.80;99.90
22635;DHT22;11484;50.858;4.384;2023-04-06T15:00:12;10.90;99.90
22635;DHT22;11484;50.858;4.384;2023-04-06T15:02:39;10.90;99.90
22635;DHT22;11484;50.858;4.384;2023-04-06T15:05:06;11.00;99.90
22635;DHT22;11484;50.858;4.384;2023-04-06T15:07:31;11.10;99.90
22635;DHT22;11484;50.858;4.384;2023-04-06T15:09:57;11.10;99.90
22635;DHT22;11484;50.858;4.384;2023-04-06T15:12:23;11.10;99.90
22635;DHT22;11484;50.858;4.384;2023-04-06T15:14:48;11.00;99.90
22635;DHT22;11484;50.858;4.384;2023-04-06T15:17:14;11.00;99.90
22635;DHT22;11484;50.858;4.384;2023-04-06T15:19:40;11.10;99.90
22635;DHT22;11484;50.858;4.384;2023-04-06T15:22:06;11.00;99.90
22635;DHT22;11484;50.858;4.384;2023-04-06T15:24:31;11.10;99.90
22635;DHT22;11484;50.858;4.384;2023-04-06T15:26:57;11.10;99.90
22635;DHT22;11484;50.858;4.384;2023-04-06T15:29:23;11.20;99.90
22635;DHT22;11484;50.858;4.384;2023-04-06T15:31:48;11.40;99.90
22635;DHT22;11484;50.858;4.384;2023-04-06T15:34:14;11.40;99.90